sensor_id;sensor_type;location;lat;lon;timestamp;pressure;altitude;pressure_sealevel;temperature;humidity
6096;BME280;25081;42.698;23.298;2022-10-28T00:02:10;96491.66;;;10.56;72.79
6096;BME280;25081;42.698;23.298;2022-10-28T00:04:20;96493.19;;;10.54;72.67
6096;BME280;25081;42.698;23.298;2022-10-28T00:06:31;96493.23;;;10.50;72.96
6096;BME280;25081;42.698;23.298;2022-10-28T00:08:41;96493.10;;;10.48;72.84
6096;BME280;25081;42.698;23.298;2022-10-28T00:10:52;96497.30;;;10.46;72.91
6096;BME280;25081;42.698;23.298;2022-10-28T00:13:02;96496.57;;;10.38;73.07
6096;BME280;25081;42.698;23.298;2022-10-28T00:15:13;96494.39;;;10.26;73.80
6096;BME280;25081;42.698;23.298;2022-10-28T00:17:24;96491.47;;;10.32;73.72
6096;BME280;25081;42.698;23.298;2022-10-28T00:19:34;96495.63;;;10.35;73.80
6096;BME280;25081;42.698;23.298;2022-10-28T00:21:45;96485.72;;;10.39;73.40
6096;BME280;25081;42.698;23.298;2022-10-28T00:23:55;96484.13;;;10.34;73.46
6096;BME280;25081;42.698;23.298;2022-10-28T00:26:07;96486.95;;;10.32;73.25
6096;BME280;25081;42.698;23.298;2022-10-28T00:28:17;96482.14;;;10.17;73.69
6096;BME280;25081;42.698;23.298;2022-10-28T00:30:28;96490.55;;;10.10;74.02
6096;BME280;25081;42.698;23.298;2022-10-28T00:32:38;96484.30;;;10.03;74.48
6096;BME280;25081;42.698;23.298;2022-10-28T00:34:49;96487.84;;;9.99;74.84
6096;BME280;25081;42.698;23.298;2022-10-28T00:36:59;96487.95;;;10.06;74.87
6096;BME280;25081;42.698;23.298;2022-10-28T00:39:11;96480.17;;;10.15;74.48
6096;BME280;25081;42.698;23.298;2022-10-28T00:41:22;96482.61;;;10.06;74.55
6096;BME280;25081;42.698;23.298;2022-10-28T00:43:36;96486.33;;;10.01;74.61
6096;BME280;25081;42.698;23.298;2022-10-28T00:45:46;96488.63;;;9.89;74.94
6096;BME280;25081;42.698;23.298;2022-10-28T00:47:57;96483.43;;;9.92;75.31
6096;BME280;25081;42.698;23.298;2022-10-28T00:50:16;96485.91;;;9.93;75.02
6096;BME280;25081;42.698;23.298;2022-10-28T00:52:26;96312.45;;;8.82;74.89
6096;BME280;25081;42.698;23.298;2022-10-28T00:54:36;96487.36;;;9.85;75.16
6096;BME280;25081;42.698;23.298;2022-10-28T00:56:47;96488.95;;;9.90;75.22
6096;BME280;25081;42.698;23.298;2022-10-28T00:58:58;96484.63;;;9.89;75.12
6096;BME280;25081;42.698;23.298;2022-10-28T01:01:07;96484.25;;;9.92;75.00
6096;BME280;25081;42.698;23.298;2022-10-28T01:03:18;96490.47;;;9.89;74.94
6096;BME280;25081;42.698;23.298;2022-10-28T01:05:29;96489.41;;;9.79;75.18
6096;BME280;25081;42.698;23.298;2022-10-28T01:07:39;96485.04;;;9.67;75.83
6096;BME280;25081;42.698;23.298;2022-10-28T01:09:50;96485.06;;;9.63;76.05
6096;BME280;25081;42.698;23.298;2022-10-28T01:12:01;96484.23;;;9.63;76.14
6096;BME280;25081;42.698;23.298;2022-10-28T01:14:16;96489.25;;;9.62;76.35
6096;BME280;25081;42.698;23.298;2022-10-28T01:16:31;96477.64;;;9.59;76.34
6096;BME280;25081;42.698;23.298;2022-10-28T01:18:41;96485.14;;;9.55;76.26
6096;BME280;25081;42.698;23.298;2022-10-28T01:23:38;96477.64;;;9.59;76.54
6096;BME280;25081;42.698;23.298;2022-10-28T01:25:59;96487.14;;;9.57;76.57
6096;BME280;25081;42.698;23.298;2022-10-28T01:28:17;96479.42;;;9.62;76.16
6096;BME280;25081;42.698;23.298;2022-10-28T01:30:27;96481.89;;;9.64;75.94
6096;BME280;25081;42.698;23.298;2022-10-28T01:32:54;96475.72;;;9.67;75.78
6096;BME280;25081;42.698;23.298;2022-10-28T01:35:10;96481.95;;;9.74;75.64
6096;BME280;25081;42.698;23.298;2022-10-28T01:37:21;96482.33;;;9.71;75.30
6096;BME280;25081;42.698;23.298;2022-10-28T01:39:33;96479.34;;;9.70;75.37
6096;BME280;25081;42.698;23.298;2022-10-28T01:41:46;96485.36;;;9.68;75.48
6096;BME280;25081;42.698;23.298;2022-10-28T01:44:00;96490.81;;;9.71;75.40
6096;BME280;25081;42.698;23.298;2022-10-28T01:46:08;96493.53;;;9.67;75.06
6096;BME280;25081;42.698;23.298;2022-10-28T01:48:18;96491.91;;;9.62;75.14
6096;BME280;25081;42.698;23.298;2022-10-28T01:50:29;96493.61;;;9.59;75.41
6096;BME280;25081;42.698;23.298;2022-10-28T01:52:39;96495.23;;;9.45;76.02
6096;BME280;25081;42.698;23.298;2022-10-28T01:54:50;96492.05;;;9.31;76.59
6096;BME280;25081;42.698;23.298;2022-10-28T01:57:01;96499.58;;;9.23;76.91
6096;BME280;25081;42.698;23.298;2022-10-28T01:59:11;96492.16;;;9.18;77.09
6096;BME280;25081;42.698;23.298;2022-10-28T02:01:21;96493.12;;;9.22;77.21
6096;BME280;25081;42.698;23.298;2022-10-28T02:03:32;96495.64;;;9.19;77.38
6096;BME280;25081;42.698;23.298;2022-10-28T02:05:44;96491.65;;;9.19;77.23
6096;BME280;25081;42.698;23.298;2022-10-28T02:07:54;96495.83;;;9.17;77.23
6096;BME280;25081;42.698;23.298;2022-10-28T02:10:06;96499.65;;;9.15;77.42
6096;BME280;25081;42.698;23.298;2022-10-28T02:12:20;96496.84;;;9.12;77.59
6096;BME280;25081;42.698;23.298;2022-10-28T02:14:39;96493.99;;;9.18;77.41
6096;BME280;25081;42.698;23.298;2022-10-28T02:16:50;96497.31;;;9.16;77.21
6096;BME280;25081;42.698;23.298;2022-10-28T02:19:02;96490.16;;;9.16;77.13
6096;BME280;25081;42.698;23.298;2022-10-28T02:21:13;96491.01;;;9.17;76.89
6096;BME280;25081;42.698;23.298;2022-10-28T02:23:28;96497.40;;;9.08;76.98
6096;BME280;25081;42.698;23.298;2022-10-28T02:25:39;96490.95;;;9.02;77.33
6096;BME280;25081;42.698;23.298;2022-10-28T02:27:50;96491.41;;;9.06;77.30
6096;BME280;25081;42.698;23.298;2022-10-28T02:30:01;96500.39;;;9.05;77.16
6096;BME280;25081;42.698;23.298;2022-10-28T02:32:12;96492.14;;;9.00;77.43
6096;BME280;25081;42.698;23.298;2022-10-28T02:34:23;96498.09;;;9.02;77.48
6096;BME280;25081;42.698;23.298;2022-10-28T02:36:34;96498.05;;;9.06;77.07
6096;BME280;25081;42.698;23.298;2022-10-28T02:38:45;96501.72;;;9.05;77.05
6096;BME280;25081;42.698;23.298;2022-10-28T02:40:55;96506.45;;;8.99;77.01
6096;BME280;25081;42.698;23.298;2022-10-28T02:43:06;96507.00;;;8.90;77.42
6096;BME280;25081;42.698;23.298;2022-10-28T02:45:17;96509.02;;;8.88;77.83
6096;BME280;25081;42.698;23.298;2022-10-28T02:47:28;96513.42;;;8.96;77.75
6096;BME280;25081;42.698;23.298;2022-10-28T02:49:38;96511.91;;;8.97;77.45
6096;BME280;25081;42.698;23.298;2022-10-28T02:51:49;96507.41;;;9.02;77.31
6096;BME280;25081;42.698;23.298;2022-10-28T02:54:00;96505.11;;;8.99;77.11
6096;BME280;25081;42.698;23.298;2022-10-28T02:56:10;96508.60;;;8.99;77.21
6096;BME280;25081;42.698;23.298;2022-10-28T02:58:21;96508.28;;;8.98;77.11
6096;BME280;25081;42.698;23.298;2022-10-28T03:00:31;96511.00;;;8.86;77.39
6096;BME280;25081;42.698;23.298;2022-10-28T03:02:42;96509.02;;;8.88;77.60
6096;BME280;25081;42.698;23.298;2022-10-28T03:04:52;96512.73;;;8.79;77.93
6096;BME280;25081;42.698;23.298;2022-10-28T03:07:03;96512.28;;;8.67;78.39
6096;BME280;25081;42.698;23.298;2022-10-28T03:09:13;96508.33;;;8.63;78.62
6096;BME280;25081;42.698;23.298;2022-10-28T03:11:24;96504.24;;;8.52;78.84
6096;BME280;25081;42.698;23.298;2022-10-28T03:13:34;96510.89;;;8.52;78.69
6096;BME280;25081;42.698;23.298;2022-10-28T03:15:44;96508.73;;;8.52;78.85
6096;BME280;25081;42.698;23.298;2022-10-28T03:17:55;96503.70;;;8.57;78.75
6096;BME280;25081;42.698;23.298;2022-10-28T03:20:07;96504.28;;;8.44;79.07
6096;BME280;25081;42.698;23.298;2022-10-28T03:22:18;96506.30;;;8.38;79.54
6096;BME280;25081;42.698;23.298;2022-10-28T03:24:28;96508.63;;;8.37;79.77
6096;BME280;25081;42.698;23.298;2022-10-28T03:26:39;96509.92;;;8.45;79.66
6096;BME280;25081;42.698;23.298;2022-10-28T03:28:49;96506.77;;;8.46;79.03
6096;BME280;25081;42.698;23.298;2022-10-28T03:31:00;96509.92;;;8.45;79.19
6096;BME280;25081;42.698;23.298;2022-10-28T03:33:11;96512.61;;;8.41;79.10
6096;BME280;25081;42.698;23.298;2022-10-28T03:35:21;96506.30;;;8.42;79.24
6096;BME280;25081;42.698;23.298;2022-10-28T03:37:32;96505.47;;;8.42;79.54
6096;BME280;25081;42.698;23.298;2022-10-28T03:39:42;96504.31;;;8.40;79.24
6096;BME280;25081;42.698;23.298;2022-10-28T03:41:52;96509.78;;;8.39;79.27
6096;BME280;25081;42.698;23.298;2022-10-28T03:44:03;96510.64;;;8.35;79.47
6096;BME280;25081;42.698;23.298;2022-10-28T03:46:14;96516.60;;;8.33;79.65
6096;BME280;25081;42.698;23.298;2022-10-28T03:48:24;96514.27;;;8.38;79.40
6096;BME280;25081;42.698;23.298;2022-10-28T03:50:35;96507.98;;;8.35;79.19
6096;BME280;25081;42.698;23.298;2022-10-28T03:52:45;96511.79;;;8.37;79.16
6096;BME280;25081;42.698;23.298;2022-10-28T03:54:56;96518.61;;;8.35;79.21
6096;BME280;25081;42.698;23.298;2022-10-28T03:57:06;96517.61;;;8.36;79.37
6096;BME280;25081;42.698;23.298;2022-10-28T03:59:17;96512.44;;;8.39;79.13
6096;BME280;25081;42.698;23.298;2022-10-28T04:01:27;96518.28;;;8.26;79.31
6096;BME280;25081;42.698;23.298;2022-10-28T04:03:38;96513.30;;;8.27;79.80
6096;BME280;25081;42.698;23.298;2022-10-28T04:05:48;96518.47;;;8.24;79.53
6096;BME280;25081;42.698;23.298;2022-10-28T04:07:58;96523.78;;;8.24;79.46
6096;BME280;25081;42.698;23.298;2022-10-28T04:10:10;96523.16;;;8.10;79.91
6096;BME280;25081;42.698;23.298;2022-10-28T04:12:20;96520.06;;;7.90;81.10
6096;BME280;25081;42.698;23.298;2022-10-28T04:14:31;96528.70;;;7.88;81.34
6096;BME280;25081;42.698;23.298;2022-10-28T04:16:42;96526.55;;;7.88;81.10
6096;BME280;25081;42.698;23.298;2022-10-28T04:18:53;96525.68;;;7.99;80.66
6096;BME280;25081;42.698;23.298;2022-10-28T04:21:04;96527.01;;;7.99;80.50
6096;BME280;25081;42.698;23.298;2022-10-28T04:23:15;96524.85;;;7.99;80.68
6096;BME280;25081;42.698;23.298;2022-10-28T04:25:26;96530.19;;;7.95;81.00
6096;BME280;25081;42.698;23.298;2022-10-28T04:27:35;96526.53;;;7.96;80.66
6096;BME280;25081;42.698;23.298;2022-10-28T04:29:46;96526.86;;;7.97;80.73
6096;BME280;25081;42.698;23.298;2022-10-28T04:31:56;96529.19;;;7.96;80.37
6096;BME280;25081;42.698;23.298;2022-10-28T04:34:07;96528.55;;;7.86;80.56
6096;BME280;25081;42.698;23.298;2022-10-28T04:36:18;96530.90;;;7.77;81.13
6096;BME280;25081;42.698;23.298;2022-10-28T04:38:28;96529.40;;;7.78;81.49
6096;BME280;25081;42.698;23.298;2022-10-28T04:40:39;96527.39;;;7.80;81.20
6096;BME280;25081;42.698;23.298;2022-10-28T04:42:49;96528.08;;;7.82;80.84
6096;BME280;25081;42.698;23.298;2022-10-28T04:45:00;96529.22;;;7.80;81.17
6096;BME280;25081;42.698;23.298;2022-10-28T04:47:10;96519.95;;;7.75;81.38
6096;BME280;25081;42.698;23.298;2022-10-28T04:49:21;96523.27;;;7.82;81.36
6096;BME280;25081;42.698;23.298;2022-10-28T04:51:31;96525.25;;;7.84;80.89
6096;BME280;25081;42.698;23.298;2022-10-28T04:53:42;96521.42;;;7.86;80.63
6096;BME280;25081;42.698;23.298;2022-10-28T04:55:56;96520.56;;;7.90;80.77
6096;BME280;25081;42.698;23.298;2022-10-28T04:58:07;96521.06;;;7.89;80.50
6096;BME280;25081;42.698;23.298;2022-10-28T05:00:18;96524.42;;;7.83;80.56
6096;BME280;25081;42.698;23.298;2022-10-28T05:02:28;96520.76;;;7.80;81.02
6096;BME280;25081;42.698;23.298;2022-10-28T05:04:39;96526.43;;;7.69;81.61
6096;BME280;25081;42.698;23.298;2022-10-28T05:06:49;96521.97;;;7.65;82.02
6096;BME280;25081;42.698;23.298;2022-10-28T05:08:59;96526.27;;;7.74;81.83
6096;BME280;25081;42.698;23.298;2022-10-28T05:11:10;96521.44;;;7.82;81.71
6096;BME280;25081;42.698;23.298;2022-10-28T05:13:20;96521.27;;;7.84;81.21
6096;BME280;25081;42.698;23.298;2022-10-28T05:15:31;96523.91;;;7.92;81.33
6096;BME280;25081;42.698;23.298;2022-10-28T05:20:01;96529.98;;;8.00;80.81
6096;BME280;25081;42.698;23.298;2022-10-28T05:22:11;96530.16;;;7.99;80.64
6096;BME280;25081;42.698;23.298;2022-10-28T05:24:22;96538.66;;;7.94;80.53
6096;BME280;25081;42.698;23.298;2022-10-28T05:26:32;96540.97;;;7.97;80.66
6096;BME280;25081;42.698;23.298;2022-10-28T05:28:43;96547.92;;;7.98;80.63
6096;BME280;25081;42.698;23.298;2022-10-28T05:30:54;96546.42;;;8.00;80.58
6096;BME280;25081;42.698;23.298;2022-10-28T05:33:04;96541.30;;;8.02;80.67
6096;BME280;25081;42.698;23.298;2022-10-28T05:35:15;96539.59;;;8.14;80.34
6096;BME280;25081;42.698;23.298;2022-10-28T05:37:26;96553.47;;;8.28;80.00
6096;BME280;25081;42.698;23.298;2022-10-28T05:39:36;96550.97;;;8.39;79.34
6096;BME280;25081;42.698;23.298;2022-10-28T05:41:47;96551.32;;;8.36;79.24
6096;BME280;25081;42.698;23.298;2022-10-28T05:43:57;96548.98;;;8.41;78.99
6096;BME280;25081;42.698;23.298;2022-10-28T05:46:08;96558.80;;;8.40;79.13
6096;BME280;25081;42.698;23.298;2022-10-28T05:48:18;96555.57;;;8.49;78.85
6096;BME280;25081;42.698;23.298;2022-10-28T05:50:29;96556.42;;;8.49;78.90
6096;BME280;25081;42.698;23.298;2022-10-28T05:52:40;96563.87;;;8.54;78.77
6096;BME280;25081;42.698;23.298;2022-10-28T05:54:50;96558.70;;;8.56;78.44
6096;BME280;25081;42.698;23.298;2022-10-28T05:57:01;96557.69;;;8.62;78.23
6096;BME280;25081;42.698;23.298;2022-10-28T05:59:11;96565.48;;;8.63;78.61
6096;BME280;25081;42.698;23.298;2022-10-28T06:01:22;96562.14;;;8.65;78.03
6096;BME280;25081;42.698;23.298;2022-10-28T06:03:32;96566.89;;;8.78;77.79
6096;BME280;25081;42.698;23.298;2022-10-28T06:05:43;96565.14;;;8.93;77.39
6096;BME280;25081;42.698;23.298;2022-10-28T06:07:53;96571.28;;;8.98;76.92
6096;BME280;25081;42.698;23.298;2022-10-28T06:10:06;96568.73;;;9.04;76.69
6096;BME280;25081;42.698;23.298;2022-10-28T06:12:16;96569.45;;;8.98;76.70
6096;BME280;25081;42.698;23.298;2022-10-28T06:14:26;96569.97;;;8.94;76.82
6096;BME280;25081;42.698;23.298;2022-10-28T06:16:37;96576.61;;;8.98;76.68
6096;BME280;25081;42.698;23.298;2022-10-28T06:18:48;96569.83;;;9.14;76.42
6096;BME280;25081;42.698;23.298;2022-10-28T06:20:58;96581.01;;;9.32;75.76
6096;BME280;25081;42.698;23.298;2022-10-28T06:23:09;96583.89;;;9.45;74.90
6096;BME280;25081;42.698;23.298;2022-10-28T06:25:20;96585.20;;;9.50;74.89
6096;BME280;25081;42.698;23.298;2022-10-28T06:27:30;96585.59;;;9.65;74.26
6096;BME280;25081;42.698;23.298;2022-10-28T06:29:41;96596.39;;;9.83;73.72
6096;BME280;25081;42.698;23.298;2022-10-28T06:31:51;96594.09;;;9.80;73.41
6096;BME280;25081;42.698;23.298;2022-10-28T06:34:02;96592.83;;;9.90;73.01
6096;BME280;25081;42.698;23.298;2022-10-28T06:36:13;96596.55;;;10.04;72.81
6096;BME280;25081;42.698;23.298;2022-10-28T06:38:23;96592.17;;;10.07;72.37
6096;BME280;25081;42.698;23.298;2022-10-28T06:40:34;96598.14;;;10.09;72.47
6096;BME280;25081;42.698;23.298;2022-10-28T06:42:44;96594.59;;;9.98;72.56
6096;BME280;25081;42.698;23.298;2022-10-28T06:44:55;96589.13;;;10.10;72.23
6096;BME280;25081;42.698;23.298;2022-10-28T06:47:05;96588.36;;;10.20;72.00
6096;BME280;25081;42.698;23.298;2022-10-28T06:49:16;96594.52;;;10.25;71.97
6096;BME280;25081;42.698;23.298;2022-10-28T06:51:26;96590.75;;;10.34;71.67
6096;BME280;25081;42.698;23.298;2022-10-28T06:53:37;96583.02;;;10.54;71.30
6096;BME280;25081;42.698;23.298;2022-10-28T06:55:53;96581.15;;;10.69;70.29
6096;BME280;25081;42.698;23.298;2022-10-28T06:58:03;96581.69;;;10.79;69.83
6096;BME280;25081;42.698;23.298;2022-10-28T07:00:15;96583.59;;;10.75;69.53
6096;BME280;25081;42.698;23.298;2022-10-28T07:02:26;96585.02;;;10.81;69.59
6096;BME280;25081;42.698;23.298;2022-10-28T07:04:36;96582.31;;;11.07;69.52
6096;BME280;25081;42.698;23.298;2022-10-28T07:06:47;96584.75;;;11.34;68.54
6096;BME280;25081;42.698;23.298;2022-10-28T07:08:58;96580.48;;;11.71;67.14
6096;BME280;25081;42.698;23.298;2022-10-28T07:11:08;96577.34;;;12.45;64.96
6096;BME280;25081;42.698;23.298;2022-10-28T07:13:19;96575.52;;;14.43;58.18
6096;BME280;25081;42.698;23.298;2022-10-28T07:15:30;96564.61;;;17.32;50.54
6096;BME280;25081;42.698;23.298;2022-10-28T07:17:40;96563.14;;;19.50;44.32
6096;BME280;25081;42.698;23.298;2022-10-28T07:19:50;96292.81;;;21.11;41.04
6096;BME280;25081;42.698;23.298;2022-10-28T07:22:01;96558.75;;;22.77;37.08
6096;BME280;25081;42.698;23.298;2022-10-28T07:24:12;96555.11;;;23.99;34.45
6096;BME280;25081;42.698;23.298;2022-10-28T07:26:22;96552.94;;;24.19;34.32
6096;BME280;25081;42.698;23.298;2022-10-28T07:28:33;96553.20;;;23.87;33.38
6096;BME280;25081;42.698;23.298;2022-10-28T07:30:43;96555.13;;;24.07;32.92
6096;BME280;25081;42.698;23.298;2022-10-28T07:32:54;96552.50;;;25.22;31.47
6096;BME280;25081;42.698;23.298;2022-10-28T07:35:05;96552.22;;;25.78;30.16
6096;BME280;25081;42.698;23.298;2022-10-28T07:37:16;96549.55;;;26.07;30.21
6096;BME280;25081;42.698;23.298;2022-10-28T07:39:26;96549.94;;;26.27;28.88
6096;BME280;25081;42.698;23.298;2022-10-28T07:41:37;96552.06;;;24.82;30.82
6096;BME280;25081;42.698;23.298;2022-10-28T07:43:47;96552.95;;;24.44;31.48
6096;BME280;25081;42.698;23.298;2022-10-28T07:45:58;96548.77;;;24.90;30.70
6096;BME280;25081;42.698;23.298;2022-10-28T07:48:09;96554.86;;;25.42;30.21
6096;BME280;25081;42.698;23.298;2022-10-28T07:50:19;96544.93;;;26.34;28.54
6096;BME280;25081;42.698;23.298;2022-10-28T07:52:30;96550.51;;;26.85;28.39
6096;BME280;25081;42.698;23.298;2022-10-28T07:54:40;96550.50;;;27.54;27.15
6096;BME280;25081;42.698;23.298;2022-10-28T07:56:51;96545.52;;;27.96;25.93
6096;BME280;25081;42.698;23.298;2022-10-28T07:59:01;96540.56;;;28.33;25.41
6096;BME280;25081;42.698;23.298;2022-10-28T08:01:13;96546.82;;;26.07;28.57
6096;BME280;25081;42.698;23.298;2022-10-28T08:03:22;96547.13;;;27.59;26.82
6096;BME280;25081;42.698;23.298;2022-10-28T08:05:33;96543.11;;;28.76;25.14
6096;BME280;25081;42.698;23.298;2022-10-28T08:07:44;96538.51;;;28.58;25.10
6096;BME280;25081;42.698;23.298;2022-10-28T08:09:54;96535.59;;;28.65;25.17
6096;BME280;25081;42.698;23.298;2022-10-28T08:12:06;96545.73;;;28.18;25.73
6096;BME280;25081;42.698;23.298;2022-10-28T08:14:17;96540.97;;;28.24;25.91
6096;BME280;25081;42.698;23.298;2022-10-28T08:16:27;96544.76;;;27.93;25.76
6096;BME280;25081;42.698;23.298;2022-10-28T08:18:38;96547.95;;;26.01;28.17
6096;BME280;25081;42.698;23.298;2022-10-28T08:20:48;96546.95;;;27.53;26.19
6096;BME280;25081;42.698;23.298;2022-10-28T08:22:59;96546.35;;;27.56;26.05
6096;BME280;25081;42.698;23.298;2022-10-28T08:25:10;96546.40;;;26.85;27.53
6096;BME280;25081;42.698;23.298;2022-10-28T08:27:21;96535.30;;;28.18;25.66
6096;BME280;25081;42.698;23.298;2022-10-28T08:29:32;96546.05;;;28.49;24.94
6096;BME280;25081;42.698;23.298;2022-10-28T08:31:42;96546.09;;;26.28;27.80
6096;BME280;25081;42.698;23.298;2022-10-28T08:33:53;96550.73;;;24.72;30.28
6096;BME280;25081;42.698;23.298;2022-10-28T08:36:04;96551.77;;;25.58;28.74
6096;BME280;25081;42.698;23.298;2022-10-28T08:38:15;96547.66;;;25.04;29.36
6096;BME280;25081;42.698;23.298;2022-10-28T08:40:27;96554.25;;;22.93;32.88
6096;BME280;25081;42.698;23.298;2022-10-28T08:42:38;96551.98;;;23.45;32.76
6096;BME280;25081;42.698;23.298;2022-10-28T08:44:56;96538.64;;;26.02;29.69
6096;BME280;25081;42.698;23.298;2022-10-28T08:47:11;96537.02;;;26.38;27.95
6096;BME280;25081;42.698;23.298;2022-10-28T08:49:21;96539.22;;;24.90;30.35
6096;BME280;25081;42.698;23.298;2022-10-28T08:51:33;96545.59;;;21.87;34.60
6096;BME280;25081;42.698;23.298;2022-10-28T08:53:45;96539.28;;;22.90;33.91
6096;BME280;25081;42.698;23.298;2022-10-28T08:55:54;96546.47;;;22.24;34.13
6096;BME280;25081;42.698;23.298;2022-10-28T08:58:06;96541.91;;;22.33;34.73
6096;BME280;25081;42.698;23.298;2022-10-28T09:00:22;96543.51;;;21.99;35.39
6096;BME280;25081;42.698;23.298;2022-10-28T09:02:35;96546.61;;;22.45;34.53
6096;BME280;25081;42.698;23.298;2022-10-28T09:04:43;96532.76;;;24.27;32.17
6096;BME280;25081;42.698;23.298;2022-10-28T09:06:54;96526.19;;;25.88;29.29
6096;BME280;25081;42.698;23.298;2022-10-28T09:09:04;96525.16;;;26.98;27.92
6096;BME280;25081;42.698;23.298;2022-10-28T09:11:26;96515.31;;;27.99;26.26
6096;BME280;25081;42.698;23.298;2022-10-28T09:13:43;96511.34;;;28.23;25.62
6096;BME280;25081;42.698;23.298;2022-10-28T09:15:56;96516.55;;;25.96;28.52
6096;BME280;25081;42.698;23.298;2022-10-28T09:18:10;96515.33;;;27.42;27.64
6096;BME280;25081;42.698;23.298;2022-10-28T09:20:19;96507.20;;;28.59;25.63
6096;BME280;25081;42.698;23.298;2022-10-28T09:22:30;96515.50;;;24.83;30.12
6096;BME280;25081;42.698;23.298;2022-10-28T09:24:42;96509.25;;;25.42;29.70
6096;BME280;25081;42.698;23.298;2022-10-28T09:26:54;96511.52;;;23.76;32.33
6096;BME280;25081;42.698;23.298;2022-10-28T09:29:09;96502.39;;;24.80;30.79
6096;BME280;25081;42.698;23.298;2022-10-28T09:31:22;96499.41;;;26.51;28.79
6096;BME280;25081;42.698;23.298;2022-10-28T09:33:43;96499.41;;;26.51;28.08
6096;BME280;25081;42.698;23.298;2022-10-28T09:35:53;96496.73;;;23.36;32.88
6096;BME280;25081;42.698;23.298;2022-10-28T09:38:06;96499.50;;;21.62;35.97
6096;BME280;25081;42.698;23.298;2022-10-28T09:40:18;96507.31;;;23.35;34.40
6096;BME280;25081;42.698;23.298;2022-10-28T09:42:28;96484.23;;;26.03;29.71
6096;BME280;25081;42.698;23.298;2022-10-28T09:44:40;96479.33;;;27.70;27.21
6096;BME280;25081;42.698;23.298;2022-10-28T09:46:50;96481.80;;;26.60;28.42
6096;BME280;25081;42.698;23.298;2022-10-28T09:49:02;96475.42;;;26.91;27.75
6096;BME280;25081;42.698;23.298;2022-10-28T09:51:20;96469.12;;;26.90;27.61
6096;BME280;25081;42.698;23.298;2022-10-28T09:53:34;96467.13;;;27.22;27.57
6096;BME280;25081;42.698;23.298;2022-10-28T09:55:44;96460.11;;;25.81;29.38
6096;BME280;25081;42.698;23.298;2022-10-28T09:57:55;96457.66;;;26.67;28.28
6096;BME280;25081;42.698;23.298;2022-10-28T10:00:10;96463.21;;;23.21;32.87
6096;BME280;25081;42.698;23.298;2022-10-28T10:02:28;96452.61;;;24.51;31.33
6096;BME280;25081;42.698;23.298;2022-10-28T10:04:38;96459.68;;;22.57;34.35
6096;BME280;25081;42.698;23.298;2022-10-28T10:06:49;96457.86;;;22.73;34.89
6096;BME280;25081;42.698;23.298;2022-10-28T10:09:00;96449.36;;;24.37;32.34
6096;BME280;25081;42.698;23.298;2022-10-28T10:11:14;96450.82;;;26.11;29.67
6096;BME280;25081;42.698;23.298;2022-10-28T10:13:24;96443.27;;;27.04;28.21
6096;BME280;25081;42.698;23.298;2022-10-28T10:15:35;96442.97;;;27.05;27.81
6096;BME280;25081;42.698;23.298;2022-10-28T10:17:46;96443.39;;;26.17;28.37
6096;BME280;25081;42.698;23.298;2022-10-28T10:20:02;96448.14;;;22.85;33.65
6096;BME280;25081;42.698;23.298;2022-10-28T10:22:12;96444.50;;;23.80;32.68
6096;BME280;25081;42.698;23.298;2022-10-28T10:24:30;96440.13;;;23.99;33.15
6096;BME280;25081;42.698;23.298;2022-10-28T10:26:40;96433.44;;;24.67;31.83
6096;BME280;25081;42.698;23.298;2022-10-28T10:28:50;96431.93;;;24.22;31.86
6096;BME280;25081;42.698;23.298;2022-10-28T10:31:02;96433.80;;;24.45;32.09
6096;BME280;25081;42.698;23.298;2022-10-28T10:33:15;96423.03;;;24.76;31.54
6096;BME280;25081;42.698;23.298;2022-10-28T10:35:25;96426.38;;;25.59;30.05
6096;BME280;25081;42.698;23.298;2022-10-28T10:37:36;96427.90;;;25.78;29.75
6096;BME280;25081;42.698;23.298;2022-10-28T10:39:56;96417.27;;;26.03;29.59
6096;BME280;25081;42.698;23.298;2022-10-28T10:42:16;96421.47;;;24.63;30.86
6096;BME280;25081;42.698;23.298;2022-10-28T10:44:32;96413.31;;;25.15;30.47
6096;BME280;25081;42.698;23.298;2022-10-28T10:46:41;96413.45;;;23.63;32.47
6096;BME280;25081;42.698;23.298;2022-10-28T10:49:05;96404.20;;;23.80;32.95
6096;BME280;25081;42.698;23.298;2022-10-28T10:51:14;96410.13;;;24.90;31.16
6096;BME280;25081;42.698;23.298;2022-10-28T10:53:23;96404.21;;;25.27;30.27
6096;BME280;25081;42.698;23.298;2022-10-28T10:57:53;96395.11;;;25.42;30.14
6096;BME280;25081;42.698;23.298;2022-10-28T11:00:05;96394.47;;;25.16;29.58
6096;BME280;25081;42.698;23.298;2022-10-28T11:02:21;96399.28;;;25.31;29.32
6096;BME280;25081;42.698;23.298;2022-10-28T11:04:31;96390.27;;;25.67;28.96
6096;BME280;25081;42.698;23.298;2022-10-28T11:06:42;96390.52;;;25.68;29.15
6096;BME280;25081;42.698;23.298;2022-10-28T11:08:56;96383.87;;;25.46;29.30
6096;BME280;25081;42.698;23.298;2022-10-28T11:11:12;96391.86;;;24.23;30.46
6096;BME280;25081;42.698;23.298;2022-10-28T11:13:25;96395.41;;;22.28;32.66
6096;BME280;25081;42.698;23.298;2022-10-28T11:15:35;96391.55;;;21.13;33.64
6096;BME280;25081;42.698;23.298;2022-10-28T11:17:55;96395.80;;;19.92;36.22
6096;BME280;25081;42.698;23.298;2022-10-28T11:20:20;96388.64;;;20.24;36.72
6096;BME280;25081;42.698;23.298;2022-10-28T11:22:41;96386.77;;;20.69;35.95
6096;BME280;25081;42.698;23.298;2022-10-28T11:25:09;96388.83;;;20.59;36.16
6096;BME280;25081;42.698;23.298;2022-10-28T11:27:25;96376.70;;;20.91;35.97
6096;BME280;25081;42.698;23.298;2022-10-28T11:29:34;96376.98;;;21.22;35.89
6096;BME280;25081;42.698;23.298;2022-10-28T11:37:16;96378.66;;;21.25;34.05
6096;BME280;25081;42.698;23.298;2022-10-28T11:39:27;96370.50;;;20.03;35.73
6096;BME280;25081;42.698;23.298;2022-10-28T11:41:42;96370.09;;;19.56;36.75
6096;BME280;25081;42.698;23.298;2022-10-28T11:43:52;96359.01;;;20.15;36.36
6096;BME280;25081;42.698;23.298;2022-10-28T11:46:04;96369.16;;;20.69;35.05
6096;BME280;25081;42.698;23.298;2022-10-28T11:48:24;96362.95;;;20.46;35.32
6096;BME280;25081;42.698;23.298;2022-10-28T11:50:39;96355.73;;;20.35;35.75
6096;BME280;25081;42.698;23.298;2022-10-28T11:55:30;96350.97;;;20.20;36.00
6096;BME280;25081;42.698;23.298;2022-10-28T11:57:43;96357.20;;;19.29;37.67